Time;durP1;ratioP1;P1;durP2;ratioP2;P2;SDS_P1;SDS_P2;PMS_P1;PMS_P2;Temp;Humidity;BMP_temperature;BMP_pressure;BME280_temperature;BME280_humidity;BME280_pressure;Samples;Min_cycle;Max_cycle;Signal;HPM_P1;HPM_P2
2022/10/01 00:02:19;;;;;;;15.43;6.80;;;;;;;16.45;69.42;100567.45;124759;1099;104200;-76
2022/10/01 00:04:51;;;;;;;15.33;7.07;;;;;;;16.41;69.54;100566.53;124881;1099;102278;-76
2022/10/01 00:07:22;;;;;;;13.90;6.50;;;;;;;16.39;70.09;100572.67;124842;1099;102867;-77
2022/10/01 00:09:53;;;;;;;17.57;6.37;;;;;;;16.33;69.49;100569.08;124793;1099;101896;-77
2022/10/01 00:12:24;;;;;;;18.83;7.17;;;;;;;16.30;70.23;100579.63;124765;1099;104311;-76
2022/10/01 00:14:55;;;;;;;14.13;6.67;;;;;;;16.30;70.10;100579.63;124780;1099;102922;-76
2022/10/01 00:17:26;;;;;;;17.10;6.57;;;;;;;16.29;69.67;100580.48;124828;1099;104267;-77
2022/10/01 00:19:58;;;;;;;15.57;6.87;;;;;;;16.27;70.18;100573.41;124836;1099;104278;-76
2022/10/01 00:22:32;;;;;;;14.63;6.80;;;;;;;16.26;70.71;100583.09;124842;1098;104159;-76
2022/10/01 00:25:04;;;;;;;14.07;6.65;;;;;;;16.24;70.65;100581.31;124798;1099;103029;-76
2022/10/01 00:27:36;;;;;;;18.23;7.53;;;;;;;16.22;70.08;100569.79;124804;1099;102775;-76
2022/10/01 00:30:09;;;;;;;14.57;6.97;;;;;;;16.22;70.45;100573.34;124841;1099;104086;-77
2022/10/01 00:32:41;;;;;;;15.73;7.50;;;;;;;16.21;70.26;100578.63;124784;1099;104245;-76
2022/10/01 00:35:13;;;;;;;19.13;7.10;;;;;;;16.17;70.90;100567.98;124851;1099;101932;-76
2022/10/01 00:37:49;;;;;;;13.10;6.33;;;;;;;16.16;70.81;100576.79;124823;1099;103058;-76
2022/10/01 00:40:22;;;;;;;18.00;6.63;;;;;;;16.15;71.09;100572.34;124777;1099;104258;-76
2022/10/01 00:42:54;;;;;;;15.93;6.97;;;;;;;16.14;70.63;100583.83;124843;1099;104223;-77
2022/10/01 00:45:25;;;;;;;15.13;7.00;;;;;;;16.12;71.15;100580.25;124843;1099;104159;-77
2022/10/01 00:47:59;;;;;;;12.40;6.43;;;;;;;16.11;70.68;100583.78;124877;1099;102852;-77
2022/10/01 00:50:34;;;;;;;15.63;6.67;;;;;;;16.10;71.43;100584.64;124848;1099;104163;-76
2022/10/01 00:53:10;;;;;;;15.60;6.80;;;;;;;16.08;71.18;100599.63;124554;1099;104294;-76
2022/10/01 00:55:44;;;;;;;16.37;7.30;;;;;;;15.99;71.08;100591.55;124393;1099;104280;-77
2022/10/01 00:58:15;;;;;;;;;;;;;;;15.94;71.19;100595.85;124900;1099;104198;-76
2022/10/01 01:00:47;;;;;;;16.07;7.03;;;;;;;15.93;71.06;100599.39;124799;1099;102761;-76
2022/10/01 01:03:19;;;;;;;15.20;6.80;;;;;;;15.88;70.77;100608.98;124748;1099;104273;-76
2022/10/01 01:05:50;;;;;;;18.50;7.30;;;;;;;15.83;71.63;100608.03;124895;1099;104408;-76
2022/10/01 01:08:21;;;;;;;14.83;7.30;;;;;;;15.82;70.94;100604.51;124800;1098;104313;-76
2022/10/01 01:11:00;;;;;;;16.63;7.40;;;;;;;15.77;70.97;100601.79;124858;1099;104195;-75
2022/10/01 01:13:37;;;;;;;16.63;7.53;;;;;;;15.75;71.10;100605.23;124512;1099;102129;-75
2022/10/01 01:16:18;;;;;;;16.13;7.40;;;;;;;15.69;71.61;100607.77;124835;1099;102138;-75
2022/10/01 01:18:57;;;;;;;17.37;7.60;;;;;;;15.62;72.18;100609.44;124926;1099;104548;-75
2022/10/01 01:21:32;;;;;;;16.97;7.40;;;;;;;15.64;72.02;100600.67;124886;1099;104082;-75
2022/10/01 01:24:35;;;;;;;15.67;7.07;;;;;;;15.65;72.31;100604.20;124872;1099;104512;-75
2022/10/01 01:27:24;;;;;;;18.10;7.50;;;;;;;15.63;71.86;100608.59;124847;1099;104267;-76
2022/10/01 01:30:02;;;;;;;20.57;8.07;;;;;;;15.58;71.65;100610.23;124840;1099;103187;-76
2022/10/01 01:32:45;;;;;;;17.73;7.47;;;;;;;15.56;71.65;100619.91;124911;1099;104162;-76
2022/10/01 01:35:23;;;;;;;13.60;6.87;;;;;;;15.56;72.15;100606.69;124855;1099;102044;-76
2022/10/01 01:38:00;;;;;;;19.70;7.30;;;;;;;15.51;71.63;100613.66;124776;1099;102300;-75
2022/10/01 01:40:44;;;;;;;16.70;7.33;;;;;;;15.43;71.84;100616.17;124880;1099;104233;-75
2022/10/01 01:43:24;;;;;;;16.47;7.10;;;;;;;15.43;72.43;100608.23;125598;1099;102400;-76
2022/10/01 01:46:03;;;;;;;18.07;7.23;;;;;;;15.46;73.08;100626.80;125050;1099;104338;-75
2022/10/01 01:48:37;;;;;;;19.47;7.77;;;;;;;15.36;72.10;100617.79;125605;1099;103241;-76
2022/10/01 01:51:14;;;;;;;18.33;7.53;;;;;;;15.33;73.02;100612.45;125709;1099;104176;-75
2022/10/01 01:53:45;;;;;;;20.43;8.30;;;;;;;15.33;72.34;100609.80;124764;1099;104238;-76
2022/10/01 01:56:17;;;;;;;20.40;7.70;;;;;;;15.34;73.22;100616.00;124872;1099;104229;-76
2022/10/01 01:58:48;;;;;;;18.13;8.37;;;;;;;15.34;72.66;100624.81;124789;1099;103075;-75
2022/10/01 02:01:38;;;;;;;21.47;8.67;;;;;;;15.35;72.43;100630.98;124805;1099;104210;-75
2022/10/01 02:04:16;;;;;;;16.90;7.45;;;;;;;15.33;73.56;100633.59;124713;1099;104182;-75
2022/10/01 02:07:23;;;;;;;19.75;8.30;;;;;;;15.28;73.53;100635.28;124806;1099;101852;-76
2022/10/01 02:10:05;;;;;;;18.67;7.27;;;;;;;15.22;72.59;100636.07;124250;1102;102950;-76
2022/10/01 02:12:48;;;;;;;16.70;8.03;;;;;;;15.22;73.14;100632.52;124726;1099;104332;-75
2022/10/01 02:15:26;;;;;;;20.12;7.55;;;;;;;15.22;73.43;100635.16;124792;1099;104613;-75
2022/10/01 02:18:03;;;;;;;19.33;7.97;;;;;;;15.21;72.84;100630.76;124797;1099;104227;-76
2022/10/01 02:20:40;;;;;;;19.90;7.93;;;;;;;15.22;73.43;100630.78;124819;1099;102742;-76
2022/10/01 02:23:16;;;;;;;20.10;8.40;;;;;;;15.22;73.27;100627.23;124780;1099;104310;-76
2022/10/01 02:25:52;;;;;;;17.93;7.80;;;;;;;15.24;73.21;100622.88;124780;1099;102808;-76
2022/10/01 02:28:25;;;;;;;18.87;7.37;;;;;;;15.24;74.01;100628.17;124801;1099;104165;-76
2022/10/01 02:30:59;;;;;;;20.50;7.60;;;;;;;15.22;73.19;100624.59;124704;1098;104656;-77
2022/10/01 02:33:34;;;;;;;16.97;7.73;;;;;;;15.24;74.04;100623.77;124799;1099;104201;-77
2022/10/01 02:36:10;;;;;;;17.37;7.73;;;;;;;15.23;74.16;100621.97;124843;1099;104166;-77
2022/10/01 02:38:44;;;;;;;18.30;7.60;;;;;;;15.22;74.09;100627.23;124770;1099;104261;-77
2022/10/01 02:41:22;;;;;;;16.33;7.27;;;;;;;15.21;73.61;100628.11;124859;1098;102261;-77
2022/10/01 02:43:59;;;;;;;19.50;7.80;;;;;;;15.19;74.09;100627.17;124873;1099;104323;-76
2022/10/01 02:46:38;;;;;;;18.25;7.65;;;;;;;15.16;73.44;100635.95;124777;1099;104229;-76
2022/10/01 02:49:12;;;;;;;19.43;7.43;;;;;;;15.14;73.77;100642.94;124762;1099;104181;-77
2022/10/01 02:51:52;;;;;;;18.15;7.67;;;;;;;15.15;74.02;100641.21;124806;1099;104300;-77
2022/10/01 02:54:28;;;;;;;18.07;7.20;;;;;;;15.15;73.89;100638.56;124795;1099;104175;-75
2022/10/01 02:59:49;;;;;;;21.80;8.93;;;;;;;15.13;74.10;100643.83;125086;1099;102147;-74
2022/10/01 03:02:21;;;;;;;26.20;11.23;;;;;;;15.12;73.85;100652.61;125133;1099;104182;-74
2022/10/01 03:04:53;;;;;;;26.07;12.03;;;;;;;15.08;73.69;100649.02;124880;1099;104730;-74
2022/10/01 03:07:24;;;;;;;29.80;12.67;;;;;;;15.06;74.32;100649.84;124837;1099;104047;-74
2022/10/01 03:09:56;;;;;;;24.77;11.60;;;;;;;15.03;74.54;100660.34;124913;1099;104198;-73
2022/10/01 03:12:27;;;;;;;23.50;11.37;;;;;;;15.01;74.01;100660.31;124806;1099;102761;-74
2022/10/01 03:14:58;;;;;;;23.23;11.53;;;;;;;14.97;74.19;100666.39;124864;1099;104262;-74
2022/10/01 03:17:29;;;;;;;29.67;12.30;;;;;;;14.92;74.68;100657.48;125090;1099;106666;-74
2022/10/01 03:20:01;;;;;;;33.43;15.50;;;;;;;14.88;74.50;100674.13;125239;1099;104184;-75
2022/10/01 03:22:32;;;;;;;32.73;14.30;;;;;;;14.84;74.04;100677.58;125297;1099;104290;-74
2022/10/01 03:25:03;;;;;;;33.23;14.87;;;;;;;14.80;74.80;100675.72;125161;1099;102105;-74
2022/10/01 03:27:34;;;;;;;29.57;14.57;;;;;;;14.79;74.86;100676.57;124652;1099;104274;-75
2022/10/01 03:30:07;;;;;;;32.90;13.80;;;;;;;14.74;75.09;100674.74;124435;1099;104173;-74
2022/10/01 03:32:38;;;;;;;31.07;14.40;;;;;;;14.72;74.31;100675.55;125043;1099;102548;-74
2022/10/01 03:35:11;;;;;;;28.10;14.20;;;;;;;14.73;74.62;100682.63;124814;1099;104196;-74
2022/10/01 03:37:42;;;;;;;28.67;13.60;;;;;;;14.73;75.25;100678.23;124872;1099;104182;-74
2022/10/01 03:40:13;;;;;;;26.23;11.97;;;;;;;14.74;75.17;100685.31;124913;1099;104169;-74
2022/10/01 03:42:44;;;;;;;28.50;11.67;;;;;;;14.73;75.39;100678.23;124832;1099;104089;-74
2022/10/01 03:45:15;;;;;;;26.03;12.70;;;;;;;14.73;75.34;100687.91;124843;1099;102067;-74
2022/10/01 03:47:51;;;;;;;27.77;12.40;;;;;;;14.72;74.45;100687.03;124458;1099;104172;-74
2022/10/01 03:50:22;;;;;;;26.27;11.80;;;;;;;14.73;74.79;100687.91;124778;1098;104245;-74
2022/10/01 03:52:53;;;;;;;26.97;12.00;;;;;;;14.72;75.38;100688.77;124951;1099;104242;-74
2022/10/01 03:55:24;;;;;;;23.63;10.50;;;;;;;14.69;75.36;100681.69;124333;1098;104705;-74
2022/10/01 03:57:56;;;;;;;22.77;11.63;;;;;;;14.65;74.55;100679.82;124913;1099;104230;-74
2022/10/01 04:00:27;;;;;;;21.13;10.47;;;;;;;14.64;75.51;100671.87;124864;1099;101831;-74
2022/10/01 04:02:58;;;;;;;23.93;10.43;;;;;;;14.63;74.99;100675.36;124934;1099;102149;-74
2022/10/01 04:05:29;;;;;;;25.47;11.13;;;;;;;14.63;74.93;100680.64;124936;1099;104217;-75
2022/10/01 04:08:00;;;;;;;26.73;10.47;;;;;;;14.65;75.12;100678.94;125067;1099;105495;-77
2022/10/01 04:10:31;;;;;;;23.47;10.10;;;;;;;14.64;75.80;100671.87;125004;1099;102788;-76
2022/10/01 04:13:03;;;;;;;20.10;8.90;;;;;;;14.61;75.52;100672.68;125269;1098;104082;-76
2022/10/01 04:15:34;;;;;;;20.33;8.63;;;;;;;14.60;75.82;100667.33;125074;1099;104259;-76
2022/10/01 04:18:05;;;;;;;20.90;9.75;;;;;;;14.60;75.30;100680.53;125138;1099;101914;-77
2022/10/01 04:20:38;;;;;;;21.50;9.10;;;;;;;14.58;75.40;100676.98;125291;1099;101828;-76
2022/10/01 04:23:09;;;;;;;18.00;8.23;;;;;;;14.60;76.07;100678.84;125227;1098;104214;-77
2022/10/01 04:25:40;;;;;;;20.40;8.97;;;;;;;14.61;75.14;100677.96;124721;1099;102233;-77
2022/10/01 04:28:13;;;;;;;19.17;9.00;;;;;;;14.61;75.04;100687.64;125090;1099;104329;-77
2022/10/01 04:30:46;;;;;;;19.40;8.55;;;;;;;14.61;75.86;100677.96;125181;1099;104235;-76
2022/10/01 04:33:20;;;;;;;18.10;8.60;;;;;;;14.64;76.14;100674.51;125289;1099;102092;-76
2022/10/01 04:35:49;;;;;;;;;;;;;;;14.64;75.55;100683.31;125318;1099;103274;-77
2022/10/01 04:38:20;;;;;;;22.77;11.27;;;;;;;14.58;75.34;100691.06;125100;1099;102777;-77
2022/10/01 04:40:51;;;;;;;26.93;12.10;;;;;;;14.58;75.52;100704.27;125030;1099;104197;-76
2022/10/01 04:43:22;;;;;;;30.90;12.83;;;;;;;14.61;76.15;100698.20;125005;1099;102346;-76
2022/10/01 04:45:53;;;;;;;28.70;12.50;;;;;;;14.63;76.11;100696.48;124784;1099;104063;-77
2022/10/01 04:48:24;;;;;;;27.90;12.53;;;;;;;14.66;76.50;100692.19;124899;1099;102784;-77
2022/10/01 04:50:55;;;;;;;29.70;12.40;;;;;;;14.70;75.44;100703.70;124471;1099;102278;-77
2022/10/01 04:53:26;;;;;;;29.30;13.07;;;;;;;14.69;75.64;100702.81;124898;1099;102768;-76
2022/10/01 04:55:57;;;;;;;25.93;12.03;;;;;;;14.72;75.53;100692.31;124774;1099;104224;-77
2022/10/01 04:58:30;;;;;;;27.30;12.47;;;;;;;14.78;76.64;100690.66;124963;1099;102266;-76
2022/10/01 05:01:01;;;;;;;28.20;13.13;;;;;;;14.80;76.46;100686.29;125219;1099;104380;-76
2022/10/01 05:03:33;;;;;;;26.13;12.73;;;;;;;14.81;76.48;100685.44;125089;1099;104242;-75
2022/10/01 05:06:04;;;;;;;25.93;13.00;;;;;;;14.82;75.88;100685.47;125079;1098;104198;-76
2022/10/01 05:08:35;;;;;;;29.90;13.30;;;;;;;14.84;76.62;100694.31;124869;1099;102794;-77
2022/10/01 05:11:06;;;;;;;27.90;13.13;;;;;;;14.89;76.52;100694.41;124850;1099;104210;-76
2022/10/01 05:13:37;;;;;;;27.70;12.80;;;;;;;14.92;75.98;100691.83;124849;1099;104241;-76
2022/10/01 05:16:10;;;;;;;27.50;12.70;;;;;;;14.93;75.60;100688.34;124915;1099;104390;-77
2022/10/01 05:18:42;;;;;;;24.00;10.63;;;;;;;14.91;75.82;100690.95;124852;1099;102738;-76
2022/10/01 05:21:14;;;;;;;26.47;10.43;;;;;;;14.89;75.71;100690.00;124858;1099;104500;-76
2022/10/01 05:23:45;;;;;;;27.63;10.97;;;;;;;14.90;76.78;100689.16;124961;1099;104210;-76
2022/10/01 05:26:16;;;;;;;23.93;10.90;;;;;;;14.96;76.04;100685.77;124865;1099;104189;-77
2022/10/01 05:28:47;;;;;;;29.13;12.13;;;;;;;15.04;76.52;100683.28;124785;1099;104172;-75
2022/10/01 05:31:18;;;;;;;24.93;11.00;;;;;;;15.13;76.80;100682.55;124837;1099;102832;-76
2022/10/01 05:33:50;;;;;;;30.00;12.27;;;;;;;15.20;76.39;100690.64;124833;1099;104214;-76
2022/10/01 05:36:21;;;;;;;29.83;12.60;;;;;;;15.29;76.91;100697.87;124799;1099;104047;-76
2022/10/01 05:38:52;;;;;;;25.37;11.77;;;;;;;15.35;76.99;100703.28;124866;1099;105418;-76
2022/10/01 05:41:23;;;;;;;30.87;11.60;;;;;;;15.42;77.12;100704.28;124826;1099;104615;-76
2022/10/01 05:43:54;;;;;;;29.87;12.73;;;;;;;15.45;76.78;100702.58;124974;1099;104162;-76
2022/10/01 05:46:25;;;;;;;27.43;11.90;;;;;;;15.50;76.34;100694.73;124673;1099;104274;-76
2022/10/01 05:48:57;;;;;;;31.43;13.00;;;;;;;15.55;77.04;100697.46;124749;1099;104166;-76
2022/10/01 05:51:29;;;;;;;23.57;11.57;;;;;;;15.58;76.59;100700.16;124345;1099;102836;-76
2022/10/01 05:54:02;;;;;;;25.13;12.17;;;;;;;15.59;76.89;100700.19;124822;1099;104188;-76
2022/10/01 05:56:33;;;;;;;25.20;12.35;;;;;;;15.69;77.07;100693.34;124294;1099;102918;-76
2022/10/01 05:59:05;;;;;;;32.27;13.77;;;;;;;15.77;76.18;100693.51;124723;1099;104284;-76
2022/10/01 06:01:36;;;;;;;30.17;11.80;;;;;;;15.79;76.12;100692.65;124885;1099;104166;-76
2022/10/01 06:04:09;;;;;;;34.63;13.63;;;;;;;15.81;76.52;100688.27;124334;1099;104248;-76
2022/10/01 06:06:40;;;;;;;27.80;12.80;;;;;;;15.85;76.31;100696.25;124833;1099;102081;-77
2022/10/01 06:09:11;;;;;;;26.87;12.77;;;;;;;15.88;76.92;100707.80;124755;1099;104277;-76
2022/10/01 06:11:42;;;;;;;27.50;12.15;;;;;;;15.96;76.92;100710.59;124792;1099;102771;-76
2022/10/01 06:14:14;;;;;;;28.87;12.10;;;;;;;16.02;76.89;100726.57;124867;1098;104345;-76
2022/10/01 06:16:45;;;;;;;28.13;12.40;;;;;;;16.03;76.29;100733.62;124697;1099;104238;-76
2022/10/01 06:19:16;;;;;;;24.93;11.13;;;;;;;16.05;76.47;100731.00;124738;1098;104163;-76
2022/10/01 06:21:47;;;;;;;28.13;11.53;;;;;;;16.08;76.92;100731.05;124786;1099;102210;-76
2022/10/01 06:24:18;;;;;;;24.93;12.07;;;;;;;16.14;76.96;100739.10;124781;1099;104629;-76
2022/10/01 06:26:50;;;;;;;27.55;12.40;;;;;;;16.24;76.22;100730.45;124749;1099;104262;-77
2022/10/01 06:29:21;;;;;;;28.23;12.30;;;;;;;16.37;76.35;100734.19;124788;1099;104172;-76
2022/10/01 06:31:52;;;;;;;26.53;13.43;;;;;;;16.49;77.01;100733.49;124753;1099;104234;-76
2022/10/01 06:34:26;;;;;;;29.73;14.03;;;;;;;16.60;76.53;100739.84;124775;1099;104213;-76
2022/10/01 06:36:57;;;;;;;26.63;12.67;;;;;;;16.76;76.80;100742.71;124888;1099;104290;-76
2022/10/01 06:39:28;;;;;;;27.23;12.50;;;;;;;16.91;77.19;100731.45;124812;1099;104313;-76
2022/10/01 06:41:59;;;;;;;26.27;12.00;;;;;;;17.06;76.67;100727.27;124987;1099;104605;-76
2022/10/01 06:44:30;;;;;;;25.67;12.03;;;;;;;17.21;76.45;100726.55;125532;1098;101792;-76
2022/10/01 06:47:01;;;;;;;27.07;12.60;;;;;;;17.34;76.23;100724.04;125462;1099;102313;-76
2022/10/01 06:49:33;;;;;;;30.27;12.43;;;;;;;17.47;76.44;100719.75;124892;1099;104235;-76
2022/10/01 06:54:53;;;;;;;32.83;14.40;;;;;;;17.82;76.29;100720.12;125018;1099;101812;-76
2022/10/01 06:57:24;;;;;;;29.00;13.10;;;;;;;17.99;76.25;100715.00;124787;1099;104277;-76
2022/10/01 06:59:57;;;;;;;25.57;13.57;;;;;;;18.15;75.75;100723.98;124926;1099;102162;-76
2022/10/01 07:02:29;;;;;;;34.47;14.47;;;;;;;18.31;75.62;100715.27;124830;1099;102988;-76
2022/10/01 07:05:00;;;;;;;31.23;14.13;;;;;;;18.48;75.55;100722.45;124814;1099;104307;-76
2022/10/01 07:07:34;;;;;;;28.00;13.90;;;;;;;18.65;75.99;100720.81;124909;1099;102348;-76
2022/10/01 07:10:07;;;;;;;38.02;16.45;;;;;;;18.83;75.15;100727.11;125248;1099;102765;-76
2022/10/01 07:12:37;;;;;;;;;;;;;;;19.04;75.49;100726.34;125500;1099;104207;-76
2022/10/01 07:15:09;;;;;;;29.07;12.50;;;;;;;19.24;75.09;100726.42;125376;1099;103058;-76
2022/10/01 07:17:47;;;;;;;32.77;13.67;;;;;;;19.46;75.01;100726.50;124959;1099;101836;-76
2022/10/01 07:20:20;;;;;;;32.97;13.07;;;;;;;19.68;75.00;100722.11;124585;1099;103376;-76
2022/10/01 07:22:58;;;;;;;25.97;11.57;;;;;;;19.93;74.61;100723.09;124849;1099;104214;-77
2022/10/01 07:25:30;;;;;;;21.80;8.67;;;;;;;20.17;74.36;100715.98;124756;1099;104368;-76
2022/10/01 07:28:04;;;;;;;24.37;9.57;;;;;;;20.42;73.89;100716.84;124890;1099;102999;-76
2022/10/01 07:30:51;;;;;;;22.43;8.20;;;;;;;20.64;74.03;100702.60;125041;1099;104383;-76
2022/10/01 07:33:22;;;;;;;21.23;6.60;;;;;;;20.88;73.20;100707.87;125129;1099;104188;-75
2022/10/01 07:35:53;;;;;;;20.30;7.70;;;;;;;21.06;73.02;100698.92;125028;1099;104163;-77
2022/10/01 07:38:24;;;;;;;17.40;6.13;;;;;;;21.24;72.26;100696.17;124826;1099;104160;-76
2022/10/01 07:40:57;;;;;;;21.97;9.77;;;;;;;21.41;72.52;100701.42;124880;1099;102759;-76
2022/10/01 07:43:29;;;;;;;26.13;9.30;;;;;;;21.59;72.10;100696.89;124779;1099;102746;-76
2022/10/01 07:46:02;;;;;;;32.77;12.17;;;;;;;21.74;71.47;100696.79;124929;1099;101987;-76
2022/10/01 07:48:33;;;;;;;31.07;10.83;;;;;;;21.90;71.24;100697.55;124900;1097;104172;-76
2022/10/01 07:51:04;;;;;;;24.07;9.77;;;;;;;22.05;70.55;100707.24;124855;1099;104195;-76
2022/10/01 07:53:35;;;;;;;22.50;9.83;;;;;;;22.18;69.81;100708.02;124873;1099;104238;-76
2022/10/01 07:56:07;;;;;;;23.87;9.17;;;;;;;22.37;69.81;100706.08;124836;1099;102236;-76
2022/10/01 07:58:38;;;;;;;20.17;7.70;;;;;;;22.58;68.90;100703.20;124813;1099;104535;-76
2022/10/01 08:01:09;;;;;;;16.55;6.60;;;;;;;22.76;68.51;100693.19;124863;1099;104109;-76
2022/10/01 08:03:40;;;;;;;13.03;4.87;;;;;;;22.93;68.44;100688.52;124852;1098;104166;-76
2022/10/01 08:06:14;;;;;;;10.00;3.40;;;;;;;23.10;67.87;100684.78;125215;1099;104207;-76
2022/10/01 08:08:46;;;;;;;9.43;3.27;;;;;;;23.27;66.78;100689.92;125306;1099;104182;-75
2022/10/01 08:11:17;;;;;;;7.80;3.43;;;;;;;23.43;65.68;100690.58;125317;1099;101843;-76
2022/10/01 08:13:48;;;;;;;8.07;3.17;;;;;;;23.60;65.68;100687.66;124756;1098;104248;-76
2022/10/01 08:16:19;;;;;;;9.07;3.40;;;;;;;23.72;65.43;100683.88;125023;1099;102675;-76
2022/10/01 08:18:54;;;;;;;6.53;3.17;;;;;;;23.78;64.51;100678.42;125311;1099;102797;-76
2022/10/01 08:21:26;;;;;;;5.30;2.90;;;;;;;23.86;63.73;100679.25;124428;1099;104233;-77
2022/10/01 08:23:57;;;;;;;6.13;2.80;;;;;;;23.93;63.75;100683.57;125341;1099;104211;-76
2022/10/01 08:26:28;;;;;;;9.63;3.30;;;;;;;23.93;63.06;100678.22;125302;1099;104207;-76
2022/10/01 08:28:59;;;;;;;7.80;3.17;;;;;;;23.96;62.23;100672.80;125097;1099;103287;-75
2022/10/01 08:31:30;;;;;;;9.23;3.20;;;;;;;23.99;62.23;100675.43;124722;1099;104360;-76
2022/10/01 08:34:01;;;;;;;5.13;2.70;;;;;;;24.01;61.84;100675.41;124769;1099;104326;-76
2022/10/01 08:36:34;;;;;;;5.17;2.80;;;;;;;24.06;60.72;100681.59;125084;1099;102788;-76
2022/10/01 08:39:07;;;;;;;6.73;3.10;;;;;;;24.10;60.13;100674.37;125324;1099;103193;-75
2022/10/01 08:41:49;;;;;;;6.93;2.80;;;;;;;24.17;60.49;100673.37;124931;1099;103209;-77
2022/10/01 08:44:26;;;;;;;6.83;2.70;;;;;;;24.26;60.16;100657.08;124971;1099;117745;-76
2022/10/01 08:47:03;;;;;;;5.00;2.60;;;;;;;24.34;60.00;100664.98;124826;1099;104446;-76
2022/10/01 08:49:41;;;;;;;11.65;3.40;;;;;;;24.44;59.43;100663.91;125069;1099;104162;-75
2022/10/01 08:52:20;;;;;;;7.53;3.40;;;;;;;24.50;59.02;100657.56;124836;1099;104257;-76
2022/10/01 08:54:55;;;;;;;10.10;3.40;;;;;;;24.56;58.43;100654.76;125030;1099;103193;-76
2022/10/01 08:57:30;;;;;;;5.87;2.70;;;;;;;24.64;58.02;100650.14;124884;1099;104195;-76
2022/10/01 09:00:06;;;;;;;9.17;2.87;;;;;;;24.75;58.12;100647.25;124869;1099;104386;-76
2022/10/01 09:02:42;;;;;;;5.93;2.83;;;;;;;24.83;57.39;100636.36;124708;1099;104162;-76
2022/10/01 09:05:23;;;;;;;7.53;2.60;;;;;;;24.94;57.05;100639.69;124784;1099;104669;-76
2022/10/01 09:08:14;;;;;;;7.00;2.70;;;;;;;25.03;56.95;100631.43;124960;1098;104197;-75
2022/10/01 09:10:49;;;;;;;5.63;2.60;;;;;;;25.14;55.87;100636.56;124918;1099;104173;-76
2022/10/01 09:13:46;;;;;;;6.47;2.57;;;;;;;25.19;55.35;100634.65;124876;1099;102785;-76
2022/10/01 09:16:24;;;;;;;6.53;2.30;;;;;;;25.26;54.21;100624.67;124902;1099;104147;-76
2022/10/01 09:19:13;;;;;;;6.13;2.20;;;;;;;25.35;53.80;100623.59;125142;1099;104281;-76
2022/10/01 09:21:55;;;;;;;4.77;2.90;;;;;;;25.40;54.02;100627.95;125044;1099;104224;-76
2022/10/01 09:24:40;;;;;;;3.23;2.23;;;;;;;25.42;53.21;100615.35;125129;1099;102947;-76
2022/10/01 09:27:16;;;;;;;6.67;2.43;;;;;;;25.46;52.63;100605.41;125090;1099;104339;-76
2022/10/01 09:29:52;;;;;;;7.13;2.60;;;;;;;25.51;52.80;100610.66;126138;1098;103808;-76
2022/10/01 09:32:27;;;;;;;7.47;2.60;;;;;;;25.59;52.20;100611.39;124970;1099;103692;-76
2022/10/01 09:35:04;;;;;;;4.83;2.40;;;;;;;25.65;51.20;100603.17;125241;1099;102089;-76
2022/10/01 09:37:43;;;;;;;6.50;2.30;;;;;;;25.70;51.86;100595.00;124938;1099;104162;-76
2022/10/01 09:40:21;;;;;;;5.27;2.07;;;;;;;25.76;50.96;100594.84;125058;1099;104466;-75
2022/10/01 09:42:52;;;;;;;2.97;2.00;;;;;;;25.83;50.82;100586.55;125158;1099;104172;-76
2022/10/01 09:45:24;;;;;;;3.80;2.03;;;;;;;25.88;50.69;100578.36;125092;1099;111680;-76
2022/10/01 09:48:04;;;;;;;4.93;2.13;;;;;;;25.91;50.15;100580.09;125389;1099;102095;-76
2022/10/01 09:50:41;;;;;;;5.93;2.50;;;;;;;25.95;49.33;100566.53;125166;1099;102771;-76
2022/10/01 09:53:18;;;;;;;4.20;2.33;;;;;;;25.96;49.02;100562.94;125188;1099;102186;-77
2022/10/01 09:55:54;;;;;;;4.17;1.90;;;;;;;26.01;48.62;100561.02;125989;1098;102247;-76
2022/10/01 09:58:29;;;;;;;3.20;2.10;;;;;;;26.03;48.46;100552.92;125294;1099;104173;-76
2022/10/01 10:01:00;;;;;;;5.53;2.50;;;;;;;26.03;48.36;100550.23;125328;1099;102876;-75
2022/10/01 10:03:32;;;;;;;9.10;1.83;;;;;;;26.05;47.72;100542.99;125090;1099;104165;-76
2022/10/01 10:06:05;;;;;;;5.47;2.10;;;;;;;26.12;47.48;100541.91;125168;1099;108116;-75
2022/10/01 10:08:39;;;;;;;4.80;1.80;;;;;;;26.17;47.48;100534.59;125145;1099;102854;-75
2022/10/01 10:11:20;;;;;;;5.90;2.20;;;;;;;26.21;46.93;100535.40;125053;1099;102646;-77
2022/10/01 10:13:54;;;;;;;4.53;2.00;;;;;;;26.25;46.61;100530.80;125296;1099;102755;-76
2022/10/01 10:16:29;;;;;;;6.27;1.80;;;;;;;26.28;45.75;100519.96;125263;1099;102963;-76
2022/10/01 10:19:03;;;;;;;8.73;2.20;;;;;;;26.29;46.42;100519.91;125022;1099;102755;-76
2022/10/01 10:21:36;;;;;;;4.20;2.10;;;;;;;26.32;45.88;100510.89;125216;1099;104709;-76
2022/10/01 10:24:22;;;;;;;7.73;2.07;;;;;;;26.41;45.50;100512.41;125400;1099;104175;-76
2022/10/01 10:26:57;;;;;;;3.07;1.70;;;;;;;26.48;44.54;100500.55;125431;1099;104162;-76
2022/10/01 10:29:30;;;;;;;4.77;1.70;;;;;;;26.56;44.55;100503.88;125499;1098;104621;-76
2022/10/01 10:32:07;;;;;;;3.17;1.70;;;;;;;26.62;44.33;100497.43;125088;1099;104166;-76
2022/10/01 10:34:42;;;;;;;3.63;1.80;;;;;;;26.70;44.24;100500.79;125230;1098;104185;-76
2022/10/01 10:37:17;;;;;;;4.70;1.60;;;;;;;26.81;44.12;100498.63;124997;1099;104163;-76
2022/10/01 10:39:52;;;;;;;4.50;1.43;;;;;;;26.90;43.65;100498.34;125229;1099;104284;-76
2022/10/01 10:42:24;;;;;;;5.57;1.80;;;;;;;26.87;42.24;100497.57;125447;1098;104175;-76
2022/10/01 10:45:03;;;;;;;1.90;1.60;;;;;;;26.87;41.92;100490.36;124826;1099;104156;-75
2022/10/01 10:47:47;;;;;;;2.90;1.63;;;;;;;26.96;42.10;100485.60;125180;1098;102031;-76
2022/10/01 10:50:29;;;;;;;4.83;1.77;;;;;;;27.01;41.39;100479.15;125321;1099;102110;-76
2022/10/01 10:53:11;;;;;;;4.83;1.70;;;;;;;26.92;40.08;100468.68;125470;1099;104227;-76
2022/10/01 10:55:52;;;;;;;3.33;1.80;;;;;;;26.99;41.14;100464.86;125295;1098;104172;-76
2022/10/01 10:58:27;;;;;;;3.70;2.10;;;;;;;27.02;39.67;100458.48;125179;1098;104335;-75
2022/10/01 11:01:02;;;;;;;6.63;2.13;;;;;;;27.02;39.33;100445.02;125702;1099;104648;-76
2022/10/01 11:03:47;;;;;;;3.63;1.50;;;;;;;27.10;40.53;100437.58;125158;1099;104270;-75
2022/10/01 11:06:19;;;;;;;5.97;1.80;;;;;;;27.18;40.24;100446.27;125451;1099;104214;-76
2022/10/01 11:08:59;;;;;;;5.03;1.63;;;;;;;27.21;39.83;100430.00;125377;1099;104268;-75
2022/10/01 11:11:50;;;;;;;1.50;1.40;;;;;;;27.24;39.80;100427.20;125765;1099;102277;-76
2022/10/01 11:14:34;;;;;;;2.43;1.57;;;;;;;27.32;39.79;100426.11;126359;1098;102858;-76
2022/10/01 11:17:41;;;;;;;3.43;1.60;;;;;;;27.37;39.45;100414.21;125523;1099;104083;-76
2022/10/01 11:20:33;;;;;;;5.00;2.00;;;;;;;27.31;38.84;100410.83;125481;1099;104194;-76
2022/10/01 11:23:32;;;;;;;3.97;2.00;;;;;;;27.29;38.94;100407.33;125444;1098;104230;-75
2022/10/01 11:26:18;;;;;;;4.97;1.80;;;;;;;27.21;37.41;100410.28;125319;1099;102261;-76
2022/10/01 11:29:06;;;;;;;3.20;1.83;;;;;;;27.20;38.60;100403.99;125469;1099;104240;-76
2022/10/01 11:31:48;;;;;;;4.03;1.90;;;;;;;27.24;38.53;100405.66;125302;1099;104254;-76
2022/10/01 11:34:51;;;;;;;4.00;1.70;;;;;;;27.28;38.36;100395.65;125501;1099;104778;-76
2022/10/01 11:37:43;;;;;;;5.17;1.87;;;;;;;27.28;38.52;100387.56;125727;1099;104134;-76
2022/10/01 11:40:24;;;;;;;3.17;1.73;;;;;;;27.29;38.68;100385.77;125437;1099;104264;-76
2022/10/01 11:43:01;;;;;;;5.77;2.07;;;;;;;27.28;38.05;100389.39;125044;1098;104209;-76